Time;durP1;ratioP1;P1;durP2;ratioP2;P2;SDS_P1;SDS_P2;PMS_P1;PMS_P2;Temp;Humidity;BMP_temperature;BMP_pressure;BME280_temperature;BME280_humidity;BME280_pressure;Samples;Min_cycle;Max_cycle;Signal;HPM_P1;HPM_P2
2020/12/29 05:00:39;;;;;;;25.15;15.50;;;2.30;99.90;;;;;;5833408;23;20279;-72
2020/12/29 05:03:05;;;;;;;30.40;15.65;;;2.20;99.90;;;;;;4954816;28;20317;-71
2020/12/29 05:05:32;;;;;;;30.48;15.27;;;2.30;99.90;;;;;;4954696;28;20201;-71
2020/12/29 05:07:58;;;;;;;28.52;15.48;;;2.30;99.90;;;;;;4955246;28;20264;-71
2020/12/29 05:10:24;;;;;;;27.48;15.45;;;2.30;99.90;;;;;;4953510;28;20615;-71
2020/12/29 05:12:51;;;;;;;33.70;15.80;;;2.30;99.90;;;;;;4954060;28;20280;-71
2020/12/29 05:15:20;;;;;;;29.05;14.60;;;2.30;99.90;;;;;;4953934;28;20283;-71
2020/12/29 05:17:47;;;;;;;29.08;16.83;;;2.30;99.90;;;;;;4954725;28;20284;-71
2020/12/29 05:20:13;;;;;;;27.35;17.00;;;2.30;99.90;;;;;;4953596;28;20212;-71
2020/12/29 05:22:40;;;;;;;28.88;15.38;;;2.30;99.90;;;;;;4954413;28;20205;-71
2020/12/29 05:25:07;;;;;;;30.98;17.20;;;2.40;99.90;;;;;;4954214;28;20205;-71
2020/12/29 05:27:37;;;;;;;31.58;16.65;;;2.40;99.90;;;;;;4953960;29;20209;-71
2020/12/29 05:30:05;;;;;;;35.35;17.25;;;2.40;99.90;;;;;;4953563;28;20213;-71
2020/12/29 05:32:36;;;;;;;30.60;16.90;;;2.40;99.90;;;;;;4953812;28;20209;-70
2020/12/29 05:35:08;;;;;;;26.05;14.73;;;2.40;99.90;;;;;;4953654;28;20205;-71
2020/12/29 05:37:36;;;;;;;29.48;15.05;;;2.40;99.90;;;;;;4953668;29;20217;-71
2020/12/29 05:40:22;;;;;;;31.27;17.27;;;2.40;99.90;;;;;;4953367;28;20220;-71
2020/12/29 05:42:49;;;;;;;30.15;16.85;;;2.50;99.90;;;;;;4934627;29;20264;-71
2020/12/29 05:45:15;;;;;;;33.30;17.83;;;2.40;99.90;;;;;;4951314;29;20201;-71
2020/12/29 05:47:41;;;;;;;29.00;16.05;;;2.50;99.90;;;;;;4953886;29;20201;-71
2020/12/29 05:50:08;;;;;;;32.92;17.90;;;2.50;99.90;;;;;;4953386;28;20213;-71
2020/12/29 05:52:35;;;;;;;26.63;16.83;;;2.50;99.90;;;;;;4953341;29;20232;-71
2020/12/29 05:55:02;;;;;;;33.58;17.20;;;2.50;99.90;;;;;;4953064;28;20224;-71
2020/12/29 05:57:28;;;;;;;28.35;16.85;;;2.50;99.90;;;;;;4953541;28;20266;-71
2020/12/29 05:59:55;;;;;;;26.17;16.00;;;2.50;99.90;;;;;;4952991;29;20205;-71
2020/12/29 06:02:21;;;;;;;26.65;15.98;;;2.50;99.90;;;;;;4952641;28;20240;-72
2020/12/29 06:04:50;;;;;;;37.08;18.85;;;2.50;99.90;;;;;;4953350;28;20213;-72
2020/12/29 06:07:19;;;;;;;33.53;16.35;;;2.50;99.90;;;;;;4953443;28;20209;-72
2020/12/29 06:09:48;;;;;;;26.50;16.17;;;2.50;99.90;;;;;;4954086;28;20205;-72
2020/12/29 06:12:30;;;;;;;31.02;16.35;;;2.50;99.90;;;;;;4953134;28;20225;-71
2020/12/29 06:14:58;;;;;;;35.40;16.38;;;2.50;99.90;;;;;;4953496;28;20621;-72
2020/12/29 06:17:32;;;;;;;30.33;16.45;;;2.50;99.90;;;;;;4953158;28;20201;-71
2020/12/29 06:20:04;;;;;;;32.67;17.25;;;2.50;99.90;;;;;;4953977;28;20209;-71
2020/12/29 06:22:35;;;;;;;33.08;15.65;;;2.50;99.90;;;;;;4952953;29;20253;-71
2020/12/29 06:25:03;;;;;;;36.33;17.65;;;2.50;99.90;;;;;;4953488;28;20281;-71
2020/12/29 06:27:39;;;;;;;32.60;16.77;;;2.50;99.90;;;;;;4937627;29;20636;-71
2020/12/29 06:30:05;;;;;;;31.88;16.27;;;2.50;99.90;;;;;;4952781;28;20712;-71
2020/12/29 06:32:39;;;;;;;30.15;18.88;;;2.50;99.90;;;;;;4952711;29;20573;-71
2020/12/29 06:35:05;;;;;;;24.48;15.13;;;2.40;99.90;;;;;;4953575;28;20287;-71
2020/12/29 06:37:39;;;;;;;30.00;17.10;;;2.40;99.90;;;;;;4953128;28;20212;-71
2020/12/29 06:40:06;;;;;;;29.05;17.42;;;2.30;99.90;;;;;;4953543;28;20213;-71
2020/12/29 06:42:38;;;;;;;28.65;16.30;;;2.30;99.90;;;;;;4952375;28;20205;-71
2020/12/29 06:45:07;;;;;;;30.48;15.80;;;2.30;99.90;;;;;;4953200;29;20597;-71
2020/12/29 06:47:36;;;;;;;29.63;15.15;;;2.20;99.90;;;;;;4953633;28;20201;-71
2020/12/29 06:50:20;;;;;;;29.80;16.35;;;2.20;99.90;;;;;;4957197;29;20217;-71
2020/12/29 06:52:53;;;;;;;33.20;16.27;;;2.20;99.90;;;;;;4945081;28;20201;-72
2020/12/29 06:55:20;;;;;;;28.35;14.80;;;2.10;99.90;;;;;;4956988;28;20256;-71
2020/12/29 06:57:47;;;;;;;32.03;17.38;;;2.10;99.90;;;;;;4956886;29;20221;-71
2020/12/29 07:00:18;;;;;;;32.03;15.75;;;2.10;99.90;;;;;;4956450;28;20260;-71
2020/12/29 07:02:47;;;;;;;29.02;16.48;;;2.10;99.90;;;;;;4956028;28;20576;-71
2020/12/29 07:05:14;;;;;;;37.20;16.20;;;2.00;99.90;;;;;;4956685;28;20201;-71
2020/12/29 07:07:50;;;;;;;29.40;18.75;;;2.00;99.90;;;;;;4956720;28;20217;-71
2020/12/29 07:10:17;;;;;;;37.33;17.20;;;2.00;99.90;;;;;;4956536;28;20276;-71
2020/12/29 07:12:44;;;;;;;33.00;17.52;;;1.90;99.90;;;;;;4956009;28;20205;-71
2020/12/29 07:15:14;;;;;;;35.22;16.83;;;1.90;99.90;;;;;;4955875;28;20296;-71
2020/12/29 07:17:56;;;;;;;32.05;15.60;;;1.90;99.90;;;;;;4956798;29;20247;-71
2020/12/29 07:20:24;;;;;;;31.05;16.80;;;1.90;99.90;;;;;;4956089;28;20209;-70
2020/12/29 07:23:01;;;;;;;34.30;16.90;;;1.90;99.90;;;;;;4955990;29;20209;-70
2020/12/29 07:25:28;;;;;;;36.22;16.27;;;1.90;99.90;;;;;;4956185;28;20212;-70
2020/12/29 07:27:59;;;;;;;31.05;16.80;;;1.90;99.90;;;;;;4956416;29;20212;-70
2020/12/29 07:30:26;;;;;;;33.03;18.55;;;1.90;99.90;;;;;;4955425;29;20773;-70
2020/12/29 07:32:53;;;;;;;33.92;16.42;;;1.90;99.90;;;;;;4955668;29;20661;-70
2020/12/29 07:35:19;;;;;;;25.88;16.30;;;1.90;99.90;;;;;;4955962;28;20288;-70
2020/12/29 07:37:50;;;;;;;37.70;16.48;;;1.90;99.90;;;;;;4956118;28;20213;-71
2020/12/29 07:40:17;;;;;;;28.55;15.68;;;1.90;99.90;;;;;;4955567;28;20598;-71
2020/12/29 07:42:43;;;;;;;39.53;18.95;;;1.90;99.90;;;;;;4955799;29;20232;-71
2020/12/29 07:45:09;;;;;;;37.10;16.52;;;1.80;99.90;;;;;;4956032;28;20209;-70
2020/12/29 07:47:35;;;;;;;33.20;18.92;;;1.90;99.90;;;;;;4956068;28;20209;-69
2020/12/29 07:50:02;;;;;;;36.17;18.40;;;1.80;99.90;;;;;;4956071;29;20611;-70
2020/12/29 07:52:28;;;;;;;30.50;16.75;;;1.80;99.90;;;;;;4955634;28;20237;-71
2020/12/29 07:55:08;;;;;;;29.27;15.68;;;1.80;99.90;;;;;;4955690;28;20202;-71
2020/12/29 07:57:35;;;;;;;37.65;18.35;;;1.80;99.90;;;;;;4974052;28;20227;-71
2020/12/29 08:00:09;;;;;;;40.55;17.42;;;1.80;99.90;;;;;;4959881;28;20206;-71
2020/12/29 08:02:35;;;;;;;33.13;15.52;;;1.80;99.90;;;;;;4955288;28;20531;-70
2020/12/29 08:05:02;;;;;;;37.78;17.65;;;1.80;99.90;;;;;;4956034;28;20209;-71
2020/12/29 08:07:28;;;;;;;36.75;17.20;;;1.80;99.90;;;;;;4955288;28;20209;-70
2020/12/29 08:09:54;;;;;;;31.23;16.35;;;1.80;99.90;;;;;;4955590;29;20583;-71
2020/12/29 08:12:20;;;;;;;42.28;18.35;;;1.90;99.90;;;;;;4955029;28;20225;-71
2020/12/29 08:14:47;;;;;;;32.38;17.10;;;1.90;99.90;;;;;;4954999;28;20232;-71
2020/12/29 08:17:14;;;;;;;33.70;18.70;;;1.90;99.90;;;;;;4955746;28;20217;-71
2020/12/29 08:19:40;;;;;;;40.78;18.45;;;1.90;99.90;;;;;;4955314;29;20310;-71
2020/12/29 08:22:07;;;;;;;36.03;18.27;;;2.00;99.90;;;;;;4955061;29;20225;-71
2020/12/29 08:24:34;;;;;;;34.45;16.30;;;2.00;99.90;;;;;;4954430;28;20213;-71
2020/12/29 08:27:00;;;;;;;30.67;18.50;;;2.10;99.90;;;;;;4955437;28;20568;-71
2020/12/29 08:29:28;;;;;;;33.25;17.15;;;2.10;99.90;;;;;;4954933;28;20206;-71
2020/12/29 08:32:09;;;;;;;33.85;18.00;;;2.20;99.90;;;;;;4955083;28;20288;-71
2020/12/29 08:34:38;;;;;;;33.70;17.92;;;2.30;99.90;;;;;;4954798;29;20610;-71
2020/12/29 08:37:06;;;;;;;33.97;17.83;;;2.30;99.90;;;;;;4954876;28;20217;-71
2020/12/29 08:39:47;;;;;;;36.47;18.98;;;2.40;99.90;;;;;;4954942;29;20243;-71
2020/12/29 08:42:17;;;;;;;33.83;17.70;;;2.40;99.90;;;;;;4954543;28;20233;-71
2020/12/29 08:44:44;;;;;;;36.40;17.80;;;2.40;99.90;;;;;;4952261;29;20307;-71
2020/12/29 08:47:12;;;;;;;36.38;17.98;;;2.50;99.90;;;;;;4954744;29;20205;-71
2020/12/29 08:49:39;;;;;;;36.10;19.42;;;2.50;99.90;;;;;;4954534;28;20209;-71
2020/12/29 08:52:06;;;;;;;26.08;15.70;;;2.60;99.90;;;;;;4954449;28;20233;-71
2020/12/29 08:54:36;;;;;;;27.00;15.98;;;2.60;99.90;;;;;;4953158;28;20217;-71
2020/12/29 08:57:05;;;;;;;34.35;17.15;;;2.60;99.90;;;;;;4960601;28;20257;-71
2020/12/29 08:59:39;;;;;;;33.95;17.45;;;2.70;99.90;;;;;;4954209;28;20201;-71
2020/12/29 09:02:06;;;;;;;33.97;16.70;;;2.80;99.90;;;;;;4954402;28;20311;-71
2020/12/29 09:04:36;;;;;;;29.52;16.35;;;2.80;99.90;;;;;;4954590;29;20209;-71
2020/12/29 09:07:07;;;;;;;32.10;16.60;;;2.80;99.90;;;;;;4954283;28;20213;-71
2020/12/29 09:09:35;;;;;;;27.48;15.65;;;2.90;99.90;;;;;;4954272;28;20213;-71
2020/12/29 09:12:09;;;;;;;28.95;16.75;;;2.90;99.90;;;;;;4953614;28;20225;-71
2020/12/29 09:14:36;;;;;;;33.92;16.95;;;3.00;99.90;;;;;;4954127;29;20613;-70
2020/12/29 09:17:03;;;;;;;53.85;29.05;;;3.00;99.90;;;;;;4954239;29;20225;-70
2020/12/29 09:19:29;;;;;;;31.10;20.90;;;3.10;99.90;;;;;;4951428;28;20201;-71
2020/12/29 09:22:08;;;;;;;41.22;22.00;;;3.10;99.90;;;;;;4954029;28;20229;-70
2020/12/29 09:24:34;;;;;;;76.68;38.72;;;3.10;99.90;;;;;;4940330;29;20205;-70
2020/12/29 09:27:01;;;;;;;37.95;23.30;;;3.20;99.90;;;;;;4953220;28;20198;-70
2020/12/29 09:29:27;;;;;;;36.53;20.35;;;3.20;99.90;;;;;;4953234;28;20638;-70
2020/12/29 09:31:55;;;;;;;36.20;19.73;;;3.20;99.90;;;;;;4951965;28;20228;-70
2020/12/29 09:34:21;;;;;;;27.88;17.73;;;3.20;99.90;;;;;;4953446;28;20288;-71
2020/12/29 09:36:48;;;;;;;31.73;19.50;;;3.20;99.90;;;;;;4954424;28;20248;-71
2020/12/29 09:39:15;;;;;;;31.92;21.05;;;3.30;99.90;;;;;;4953161;28;20209;-71
2020/12/29 09:41:41;;;;;;;30.13;18.13;;;3.40;99.90;;;;;;4953381;28;20287;-71
2020/12/29 09:44:07;;;;;;;33.60;17.70;;;3.40;99.90;;;;;;4953272;29;20643;-71
2020/12/29 09:46:37;;;;;;;27.30;14.40;;;3.40;99.90;;;;;;4953039;29;20209;-71
2020/12/29 09:49:04;;;;;;;27.35;17.50;;;3.40;99.90;;;;;;4953846;28;20216;-71
2020/12/29 09:51:30;;;;;;;27.40;15.50;;;3.40;99.90;;;;;;4953292;28;20264;-71
2020/12/29 09:53:57;;;;;;;22.73;14.88;;;3.40;99.90;;;;;;4954312;28;20205;-73
2020/12/29 09:56:24;;;;;;;27.45;15.73;;;3.40;99.90;;;;;;4955652;29;20221;-71
2020/12/29 09:58:50;;;;;;;22.75;15.05;;;3.50;99.90;;;;;;4953638;28;20197;-71
2020/12/29 10:01:17;;;;;;;19.08;13.98;;;3.60;99.90;;;;;;4951407;28;20520;-71
2020/12/29 10:03:43;;;;;;;21.00;13.70;;;3.60;99.90;;;;;;4952244;28;20212;-71
2020/12/29 10:06:09;;;;;;;21.95;16.48;;;3.60;99.90;;;;;;4953589;29;20248;-71
2020/12/29 10:08:37;;;;;;;20.70;13.82;;;3.70;99.90;;;;;;4952111;28;20210;-71
2020/12/29 10:11:03;;;;;;;19.17;13.50;;;3.70;99.90;;;;;;4949779;29;20229;-71
2020/12/29 10:13:30;;;;;;;21.60;13.32;;;3.70;99.90;;;;;;4955223;28;20227;-71
2020/12/29 10:15:56;;;;;;;17.25;12.85;;;3.80;99.90;;;;;;4953021;28;20229;-70
2020/12/29 10:18:24;;;;;;;16.67;12.70;;;3.80;99.90;;;;;;4953554;29;20205;-71
2020/12/29 10:20:51;;;;;;;14.32;12.00;;;3.80;99.90;;;;;;4953669;28;20288;-71
2020/12/29 10:23:17;;;;;;;21.02;15.00;;;3.90;99.90;;;;;;4953070;28;20235;-71
2020/12/29 10:25:43;;;;;;;14.77;11.10;;;3.90;99.90;;;;;;4953649;28;20212;-72
2020/12/29 10:28:09;;;;;;;14.30;10.27;;;4.00;99.90;;;;;;4953746;28;20205;-71
2020/12/29 10:30:37;;;;;;;14.25;11.00;;;4.00;99.90;;;;;;4953649;28;20233;-72
2020/12/29 10:33:03;;;;;;;14.20;11.75;;;4.00;99.90;;;;;;4971214;28;20215;-71
2020/12/29 10:35:29;;;;;;;14.02;10.60;;;4.10;99.90;;;;;;4959374;28;20571;-72
2020/12/29 10:37:55;;;;;;;14.25;11.55;;;4.00;99.90;;;;;;4954564;29;20213;-72
2020/12/29 10:40:21;;;;;;;12.75;10.30;;;4.00;99.90;;;;;;4962095;28;20209;-71
2020/12/29 10:42:47;;;;;;;10.88;9.75;;;4.00;99.90;;;;;;4953152;28;20284;-74
2020/12/29 10:45:14;;;;;;;14.40;9.50;;;4.10;99.90;;;;;;4952460;28;20220;-75
2020/12/29 10:47:41;;;;;;;12.15;8.10;;;4.10;99.90;;;;;;4953264;28;20213;-72
2020/12/29 10:50:07;;;;;;;11.05;9.13;;;4.20;99.90;;;;;;4953529;28;20198;-73
2020/12/29 10:52:33;;;;;;;10.60;9.23;;;4.10;99.90;;;;;;4953581;28;20216;-74
2020/12/29 10:54:59;;;;;;;11.10;9.10;;;4.20;99.90;;;;;;4952875;28;20201;-74
2020/12/29 10:57:25;;;;;;;23.55;14.75;;;4.20;99.90;;;;;;4954641;28;20332;-72
2020/12/29 10:59:51;;;;;;;12.77;9.45;;;4.20;99.90;;;;;;4952487;28;20666;-73
2020/12/29 11:02:17;;;;;;;12.73;9.32;;;4.20;99.90;;;;;;4951676;28;20569;-73
2020/12/29 11:04:44;;;;;;;10.30;8.27;;;4.30;99.90;;;;;;4952905;29;20209;-73
2020/12/29 11:07:11;;;;;;;10.75;8.60;;;4.20;99.90;;;;;;4952771;28;20202;-74
2020/12/29 11:09:37;;;;;;;14.63;10.10;;;4.30;99.90;;;;;;4952853;29;20623;-72
2020/12/29 11:12:03;;;;;;;17.50;10.73;;;4.30;99.90;;;;;;4953930;29;20233;-74
2020/12/29 11:14:29;;;;;;;13.00;9.48;;;4.30;99.90;;;;;;4952354;29;20564;-71
2020/12/29 11:16:55;;;;;;;13.07;10.20;;;4.40;99.90;;;;;;4952912;28;20767;-70
2020/12/29 11:19:21;;;;;;;13.52;11.05;;;4.40;99.90;;;;;;4952352;28;20658;-70
2020/12/29 11:21:48;;;;;;;13.35;9.75;;;4.40;99.90;;;;;;4952520;28;20662;-71
2020/12/29 11:24:16;;;;;;;12.32;10.77;;;4.40;99.90;;;;;;4954456;29;20213;-72
2020/12/29 11:26:42;;;;;;;11.70;9.77;;;4.40;99.90;;;;;;4957283;28;20209;-73
2020/12/29 11:29:08;;;;;;;15.25;12.05;;;4.30;99.90;;;;;;4958259;28;20213;-73
2020/12/29 11:31:35;;;;;;;17.23;11.60;;;4.40;99.90;;;;;;4954294;28;20706;-72
2020/12/29 11:34:01;;;;;;;20.00;14.27;;;4.40;99.90;;;;;;4955313;28;20577;-72
2020/12/29 11:36:27;;;;;;;17.90;12.95;;;4.40;99.90;;;;;;4957478;28;20541;-70
2020/12/29 11:38:54;;;;;;;16.75;10.73;;;4.40;99.90;;;;;;4956392;29;20217;-70
2020/12/29 11:41:20;;;;;;;14.32;11.20;;;4.40;99.90;;;;;;4956264;29;20287;-70
2020/12/29 11:43:46;;;;;;;19.35;11.68;;;4.40;99.90;;;;;;4956919;29;20634;-70
2020/12/29 11:46:12;;;;;;;10.93;9.57;;;4.40;99.90;;;;;;4955814;29;20228;-70
2020/12/29 11:48:39;;;;;;;15.35;11.02;;;4.40;99.90;;;;;;4956017;28;20209;-74
2020/12/29 11:51:09;;;;;;;9.55;8.65;;;4.40;99.90;;;;;;4956075;29;20229;-74
2020/12/29 11:53:36;;;;;;;11.10;9.55;;;4.40;99.90;;;;;;4955923;29;20241;-73
2020/12/29 11:56:03;;;;;;;11.77;8.93;;;4.40;99.90;;;;;;4955868;29;20248;-74
2020/12/29 11:58:30;;;;;;;9.98;9.00;;;4.40;99.90;;;;;;4955996;28;20556;-74
2020/12/29 12:00:56;;;;;;;9.70;8.70;;;4.50;99.90;;;;;;4955885;28;20236;-73
2020/12/29 12:03:22;;;;;;;12.20;8.45;;;4.50;99.90;;;;;;4958044;28;20214;-72
2020/12/29 12:05:48;;;;;;;8.80;7.38;;;4.50;99.90;;;;;;4957733;28;20209;-72
2020/12/29 12:08:14;;;;;;;11.30;7.97;;;4.50;99.90;;;;;;4957077;28;20205;-71
2020/12/29 12:10:40;;;;;;;10.50;8.25;;;4.50;99.90;;;;;;4956568;28;20261;-71
2020/12/29 12:13:07;;;;;;;8.65;7.80;;;4.60;99.90;;;;;;4956580;28;20217;-71
2020/12/29 12:15:34;;;;;;;7.82;7.05;;;4.60;99.90;;;;;;4956234;28;20217;-72
2020/12/29 12:18:00;;;;;;;9.82;7.65;;;4.60;99.90;;;;;;4956312;28;20547;-72
2020/12/29 12:20:26;;;;;;;7.93;7.05;;;4.60;99.90;;;;;;4959061;28;20315;-72
2020/12/29 12:22:52;;;;;;;8.80;7.90;;;4.60;99.90;;;;;;4962429;28;20217;-73
2020/12/29 12:25:18;;;;;;;9.65;7.47;;;4.60;99.90;;;;;;4966673;28;20213;-72
2020/12/29 12:27:44;;;;;;;8.23;7.43;;;4.60;99.90;;;;;;4973251;28;20289;-72
2020/12/29 12:30:11;;;;;;;9.27;7.90;;;4.60;99.90;;;;;;4974095;28;20212;-72
2020/12/29 12:32:37;;;;;;;9.30;7.60;;;4.60;99.90;;;;;;4974889;28;20228;-72
2020/12/29 12:35:03;;;;;;;16.65;13.02;;;4.70;99.90;;;;;;4964670;28;20236;-73
2020/12/29 12:37:30;;;;;;;20.63;13.82;;;4.70;99.90;;;;;;4962937;28;20240;-73
2020/12/29 12:39:56;;;;;;;31.60;18.60;;;4.70;99.90;;;;;;4958618;28;20232;-73
2020/12/29 12:42:22;;;;;;;16.85;12.70;;;4.70;99.90;;;;;;4955210;28;20237;-73
2020/12/29 12:44:48;;;;;;;11.20;10.05;;;4.70;99.90;;;;;;4954847;28;20277;-73
2020/12/29 12:47:16;;;;;;;9.00;7.65;;;4.70;99.90;;;;;;4955555;28;20206;-74
2020/12/29 12:49:42;;;;;;;8.20;7.40;;;4.70;99.90;;;;;;4955111;28;20237;-74
2020/12/29 12:52:08;;;;;;;9.88;8.20;;;4.70;99.90;;;;;;4954631;28;20736;-73
2020/12/29 12:54:34;;;;;;;8.15;7.40;;;4.70;99.90;;;;;;4954867;28;20625;-74
2020/12/29 12:57:00;;;;;;;10.98;7.93;;;4.70;99.90;;;;;;4954911;28;20225;-74
2020/12/29 12:59:27;;;;;;;11.65;8.73;;;4.70;99.90;;;;;;4954420;28;20351;-73
2020/12/29 13:01:54;;;;;;;9.20;8.02;;;4.70;99.90;;;;;;4954626;28;20287;-74
2020/12/29 13:04:21;;;;;;;9.40;7.97;;;4.70;99.90;;;;;;4954743;28;20578;-74
2020/12/29 13:06:48;;;;;;;10.00;8.02;;;4.70;99.90;;;;;;4954831;28;20205;-74
2020/12/29 13:09:15;;;;;;;7.85;7.05;;;4.80;99.90;;;;;;4954898;28;20257;-73
2020/12/29 13:11:41;;;;;;;9.23;7.65;;;4.80;99.90;;;;;;4954288;28;20240;-74
2020/12/29 13:14:07;;;;;;;9.00;7.78;;;4.70;99.90;;;;;;4954569;28;20209;-73
2020/12/29 13:16:33;;;;;;;7.88;7.18;;;4.80;99.90;;;;;;4954192;28;20284;-74
2020/12/29 13:19:00;;;;;;;9.82;8.90;;;4.80;99.90;;;;;;4954535;28;20212;-74
2020/12/29 13:21:27;;;;;;;9.27;8.38;;;4.70;99.90;;;;;;4954244;28;20280;-73
2020/12/29 13:23:53;;;;;;;11.00;8.60;;;4.70;99.90;;;;;;4954342;28;20213;-73
2020/12/29 13:26:19;;;;;;;10.18;7.53;;;4.70;99.90;;;;;;4954281;28;20281;-72
2020/12/29 13:28:45;;;;;;;9.52;8.25;;;4.70;99.90;;;;;;4954496;28;20235;-72
2020/12/29 13:31:12;;;;;;;10.30;8.40;;;4.80;99.90;;;;;;4953812;28;20257;-72
2020/12/29 13:33:39;;;;;;;16.63;8.82;;;4.80;99.90;;;;;;4954204;28;20294;-73
2020/12/29 13:36:06;;;;;;;8.50;7.68;;;4.80;99.90;;;;;;4954583;28;20232;-73
2020/12/29 13:38:33;;;;;;;9.10;7.55;;;4.80;99.90;;;;;;4956251;28;20212;-73
2020/12/29 13:41:00;;;;;;;9.48;8.18;;;4.80;99.90;;;;;;4955796;28;20229;-74
2020/12/29 13:43:27;;;;;;;11.00;8.55;;;4.80;99.90;;;;;;4955312;28;20690;-74
2020/12/29 13:45:54;;;;;;;9.52;8.45;;;4.80;99.90;;;;;;4955234;28;20409;-73
2020/12/29 13:48:21;;;;;;;8.80;7.30;;;4.80;99.90;;;;;;4955177;28;20252;-73
2020/12/29 13:50:48;;;;;;;7.80;6.65;;;4.80;99.90;;;;;;4954443;28;20261;-73
2020/12/29 13:53:14;;;;;;;9.88;7.10;;;4.90;99.90;;;;;;4953448;28;20217;-74
2020/12/29 13:55:44;;;;;;;10.30;7.75;;;4.90;99.90;;;;;;4954116;29;20216;-74
2020/12/29 13:58:10;;;;;;;12.23;8.38;;;5.00;99.90;;;;;;4954134;28;20228;-74
2020/12/29 14:00:37;;;;;;;8.95;7.10;;;5.00;99.90;;;;;;4953641;29;20288;-74
2020/12/29 14:03:03;;;;;;;9.70;8.25;;;5.00;99.90;;;;;;4954122;28;20592;-74
2020/12/29 14:05:29;;;;;;;16.40;11.48;;;4.90;99.90;;;;;;4953968;28;20213;-74
2020/12/29 14:07:56;;;;;;;9.85;8.85;;;4.90;99.90;;;;;;4954266;28;20251;-73
2020/12/29 14:10:22;;;;;;;10.43;9.48;;;4.80;99.90;;;;;;4953252;28;20213;-73
2020/12/29 14:12:49;;;;;;;20.70;8.70;;;4.90;99.90;;;;;;4953639;28;20661;-73
2020/12/29 14:15:15;;;;;;;10.57;7.63;;;4.80;99.90;;;;;;4953966;28;20220;-74
2020/12/29 14:17:41;;;;;;;10.75;7.63;;;4.80;99.90;;;;;;4954486;29;20247;-73
2020/12/29 14:20:08;;;;;;;12.85;9.15;;;4.80;99.90;;;;;;4953901;28;20212;-74
2020/12/29 14:22:34;;;;;;;10.02;8.07;;;4.80;99.90;;;;;;4954052;29;20205;-73
2020/12/29 14:25:00;;;;;;;11.77;9.13;;;4.80;99.90;;;;;;4953615;29;20205;-73
2020/12/29 14:27:26;;;;;;;11.25;9.40;;;4.80;99.90;;;;;;4953996;29;20201;-73
2020/12/29 14:29:53;;;;;;;8.52;7.65;;;4.80;99.90;;;;;;4952678;28;20213;-73
2020/12/29 14:32:19;;;;;;;9.50;8.50;;;4.70;99.90;;;;;;4953328;28;20217;-73
2020/12/29 14:34:46;;;;;;;11.25;9.07;;;4.70;99.90;;;;;;4952659;28;20212;-73
2020/12/29 14:37:12;;;;;;;9.82;8.65;;;4.70;99.90;;;;;;4953224;28;20229;-73
2020/12/29 14:39:38;;;;;;;13.15;10.70;;;4.70;99.90;;;;;;4953731;28;20310;-73
2020/12/29 14:42:04;;;;;;;14.25;11.05;;;4.70;99.90;;;;;;4953024;28;20572;-73
2020/12/29 14:44:30;;;;;;;13.75;11.30;;;4.70;99.90;;;;;;4953017;28;20577;-73
2020/12/29 14:47:01;;;;;;;15.20;11.95;;;4.70;99.90;;;;;;4953182;28;20292;-73
2020/12/29 14:49:28;;;;;;;12.65;11.38;;;4.70;99.90;;;;;;4953566;28;20243;-72
2020/12/29 14:51:58;;;;;;;11.90;10.32;;;4.80;99.90;;;;;;4952752;28;20228;-72
2020/12/29 14:54:24;;;;;;;12.27;9.35;;;4.70;99.90;;;;;;4951891;28;20714;-72
2020/12/29 14:56:50;;;;;;;14.57;9.77;;;4.70;99.90;;;;;;4952609;28;20291;-71
2020/12/29 14:59:16;;;;;;;14.60;12.15;;;4.70;99.90;;;;;;4952085;28;20208;-72
2020/12/29 15:01:42;;;;;;;14.35;12.23;;;4.70;99.90;;;;;;4950991;28;20240;-72
2020/12/29 15:04:09;;;;;;;15.07;10.60;;;4.70;99.90;;;;;;4952151;28;20716;-74
2020/12/29 15:06:37;;;;;;;13.45;10.88;;;4.70;99.90;;;;;;4943262;29;20212;-72
2020/12/29 15:09:05;;;;;;;16.58;12.38;;;4.70;99.90;;;;;;4954342;28;20228;-73
2020/12/29 15:11:32;;;;;;;14.63;13.07;;;4.70;99.90;;;;;;4956868;29;20225;-73
2020/12/29 15:13:58;;;;;;;15.98;12.88;;;4.70;99.90;;;;;;4956986;28;20209;-73
2020/12/29 15:16:24;;;;;;;11.13;9.90;;;4.70;99.90;;;;;;4956362;28;20236;-73
2020/12/29 15:18:51;;;;;;;30.50;21.10;;;4.70;99.90;;;;;;4956265;28;20205;-73
2020/12/29 15:21:18;;;;;;;13.75;11.90;;;4.60;99.90;;;;;;4956291;28;20268;-73
2020/12/29 15:23:45;;;;;;;11.13;9.88;;;4.60;99.90;;;;;;4956288;28;20209;-74
2020/12/29 15:26:13;;;;;;;11.18;10.05;;;4.70;99.90;;;;;;4956351;29;20300;-73
2020/12/29 15:28:40;;;;;;;16.38;12.63;;;4.70;99.90;;;;;;4954517;28;20213;-73
2020/12/29 15:31:07;;;;;;;14.73;10.70;;;4.70;99.90;;;;;;4955834;28;20633;-73
2020/12/29 15:33:34;;;;;;;14.10;11.82;;;4.70;99.90;;;;;;4955588;28;20658;-73
2020/12/29 15:36:04;;;;;;;20.00;16.92;;;4.70;99.90;;;;;;4955854;28;20617;-71
2020/12/29 15:38:31;;;;;;;17.17;14.95;;;4.70;99.90;;;;;;4956177;28;20209;-71
2020/12/29 15:40:57;;;;;;;19.10;14.43;;;4.70;99.90;;;;;;4949904;28;20233;-71
2020/12/29 15:43:24;;;;;;;18.10;12.90;;;4.70;99.90;;;;;;4938395;29;20234;-70
2020/12/29 15:45:50;;;;;;;12.15;10.95;;;4.70;99.90;;;;;;4955635;28;20217;-71
2020/12/29 15:48:16;;;;;;;14.20;12.02;;;4.70;99.90;;;;;;4961678;28;20549;-71
2020/12/29 15:50:42;;;;;;;18.25;13.57;;;4.70;99.90;;;;;;4955466;28;20225;-71
2020/12/29 15:53:09;;;;;;;18.20;14.23;;;4.70;99.90;;;;;;4955105;28;20216;-71
2020/12/29 15:55:36;;;;;;;20.90;13.32;;;4.60;99.90;;;;;;4944840;29;20209;-71
2020/12/29 15:58:02;;;;;;;18.15;13.40;;;4.70;99.90;;;;;;4954854;28;20276;-71
2020/12/29 16:00:29;;;;;;;19.40;15.23;;;4.70;99.90;;;;;;4949321;28;20221;-71
2020/12/29 16:02:55;;;;;;;15.13;10.40;;;4.70;99.90;;;;;;4954687;28;20253;-71
2020/12/29 16:05:21;;;;;;;13.13;11.27;;;4.70;99.90;;;;;;4955060;28;20228;-71
2020/12/29 16:07:48;;;;;;;20.15;12.57;;;4.70;99.90;;;;;;4955229;28;20216;-71
2020/12/29 16:10:16;;;;;;;17.98;12.80;;;4.70;99.90;;;;;;4955436;28;20296;-71
2020/12/29 16:12:44;;;;;;;17.15;15.00;;;4.70;99.90;;;;;;4954579;28;20653;-71
2020/12/29 16:15:10;;;;;;;19.50;13.55;;;4.60;99.90;;;;;;4947648;28;20213;-71
2020/12/29 16:17:36;;;;;;;17.25;12.13;;;4.60;99.90;;;;;;4955662;28;20232;-71
2020/12/29 16:20:03;;;;;;;15.80;11.80;;;4.60;99.90;;;;;;4954608;28;20268;-71
2020/12/29 16:22:29;;;;;;;20.77;13.80;;;4.60;99.90;;;;;;4954457;28;20252;-71
2020/12/29 16:24:56;;;;;;;19.90;13.13;;;4.50;99.90;;;;;;4954585;28;20209;-71
2020/12/29 16:27:22;;;;;;;15.38;12.07;;;4.50;99.90;;;;;;4955143;28;20213;-71
2020/12/29 16:29:49;;;;;;;16.73;13.60;;;4.60;99.90;;;;;;4954577;28;20204;-71
2020/12/29 16:32:16;;;;;;;16.20;12.23;;;4.60;99.90;;;;;;4953235;28;20229;-71
2020/12/29 16:34:43;;;;;;;22.05;14.18;;;4.60;99.90;;;;;;4954566;28;20205;-70
2020/12/29 16:37:10;;;;;;;17.95;14.68;;;4.60;99.90;;;;;;4955592;29;20232;-71
2020/12/29 16:39:36;;;;;;;22.55;14.05;;;4.60;99.90;;;;;;4955010;28;20212;-72
2020/12/29 16:42:06;;;;;;;20.75;14.98;;;4.60;99.90;;;;;;4953659;28;20260;-72
2020/12/29 16:44:33;;;;;;;22.02;15.95;;;4.60;99.90;;;;;;4954359;28;20323;-72
2020/12/29 16:47:01;;;;;;;25.15;15.63;;;4.60;99.90;;;;;;4955066;28;20204;-72
2020/12/29 16:49:27;;;;;;;26.63;15.60;;;4.60;99.90;;;;;;4954368;28;20213;-71
2020/12/29 16:51:54;;;;;;;24.15;17.63;;;4.60;99.90;;;;;;4952996;28;20232;-71
2020/12/29 16:54:20;;;;;;;21.40;16.27;;;4.60;99.90;;;;;;4952114;28;20672;-71
2020/12/29 16:56:49;;;;;;;22.55;15.63;;;4.60;99.90;;;;;;4954210;28;20268;-71
2020/12/29 16:59:15;;;;;;;18.65;14.30;;;4.60;99.90;;;;;;4953500;28;20213;-72
2020/12/29 17:01:41;;;;;;;24.13;16.02;;;4.60;99.90;;;;;;4951078;28;20310;-72
2020/12/29 17:04:08;;;;;;;27.40;19.15;;;4.60;99.90;;;;;;4954662;28;20284;-73
2020/12/29 17:06:36;;;;;;;21.35;14.52;;;4.60;99.90;;;;;;4954511;28;20215;-73
2020/12/29 17:09:03;;;;;;;25.00;17.60;;;4.60;99.90;;;;;;4952481;29;20560;-72
2020/12/29 17:11:29;;;;;;;29.20;19.48;;;4.60;99.90;;;;;;4954945;28;20225;-72
2020/12/29 17:13:55;;;;;;;24.90;18.75;;;4.60;99.90;;;;;;4953358;28;20212;-72
2020/12/29 17:16:22;;;;;;;23.20;15.50;;;4.60;99.90;;;;;;4954484;28;20233;-73
2020/12/29 17:18:48;;;;;;;29.40;18.42;;;4.60;99.90;;;;;;4955138;28;20213;-72
2020/12/29 17:21:16;;;;;;;26.63;16.50;;;4.60;99.90;;;;;;4955891;28;20228;-70
2020/12/29 17:23:43;;;;;;;24.63;16.77;;;4.60;99.90;;;;;;4951633;29;20289;-70
2020/12/29 17:26:15;;;;;;;20.92;14.95;;;4.60;99.90;;;;;;4949933;28;20213;-70
2020/12/29 17:28:41;;;;;;;23.65;16.60;;;4.60;99.90;;;;;;4956686;28;20649;-70
2020/12/29 17:31:07;;;;;;;25.85;17.55;;;4.60;99.90;;;;;;4954566;28;20233;-71
2020/12/29 17:33:33;;;;;;;24.00;16.95;;;4.60;99.90;;;;;;4954238;28;20209;-71
2020/12/29 17:35:59;;;;;;;27.38;17.45;;;4.70;99.90;;;;;;4955088;28;20213;-71
2020/12/29 17:38:26;;;;;;;24.02;15.52;;;4.60;99.90;;;;;;4954480;28;20205;-71
2020/12/29 17:40:52;;;;;;;25.10;16.83;;;4.60;99.90;;;;;;4954111;28;20580;-71